createdAt,value
2022-10-15T00:00:25.181Z,23.90
2022-10-15T00:01:25.118Z,23.20
2022-10-15T00:02:25.085Z,25.40
2022-10-15T00:03:25.024Z,25.40
2022-10-15T00:04:24.991Z,25.50
2022-10-15T00:05:24.960Z,27.30
2022-10-15T00:06:24.902Z,26.80
2022-10-15T00:07:25.137Z,26.60
2022-10-15T00:08:24.805Z,26.10
2022-10-15T00:09:24.783Z,27.60
2022-10-15T00:10:24.734Z,26.00
2022-10-15T00:11:24.674Z,26.80
2022-10-15T00:12:24.624Z,26.00
2022-10-15T00:13:24.583Z,26.90
2022-10-15T00:14:24.546Z,27.80
2022-10-15T00:15:24.495Z,27.00
2022-10-15T00:16:24.436Z,28.60
2022-10-15T00:17:24.829Z,28.50
2022-10-15T00:18:24.356Z,29.20
2022-10-15T00:19:24.317Z,28.50
2022-10-15T00:20:24.297Z,28.40
2022-10-15T00:21:24.219Z,28.30
2022-10-15T00:22:24.545Z,27.70
2022-10-15T00:23:24.109Z,27.70
2022-10-15T00:24:24.058Z,27.50
2022-10-15T00:25:24.012Z,27.60
2022-10-15T00:26:24.017Z,28.00
2022-10-15T00:27:23.913Z,27.90
2022-10-15T00:28:23.880Z,27.60
2022-10-15T00:29:23.808Z,26.50
2022-10-15T00:30:23.763Z,26.80
2022-10-15T00:31:23.742Z,26.40
2022-10-15T00:32:23.966Z,24.90
2022-10-15T00:33:23.642Z,25.40
2022-10-15T00:34:23.594Z,24.90
2022-10-15T00:35:23.564Z,25.60
2022-10-15T00:36:23.523Z,25.30
2022-10-15T00:37:23.463Z,24.20
2022-10-15T00:38:23.445Z,23.30
2022-10-15T00:39:23.390Z,23.90
2022-10-15T00:40:23.342Z,23.10
2022-10-15T00:41:23.305Z,24.30
2022-10-15T00:42:23.526Z,24.60
2022-10-15T00:43:23.215Z,23.40
2022-10-15T00:44:23.175Z,24.10
2022-10-15T00:45:23.125Z,24.40
2022-10-15T00:46:23.105Z,24.50
2022-10-15T00:47:23.030Z,23.60
2022-10-15T00:48:22.998Z,22.40
2022-10-15T00:49:22.930Z,23.50
2022-10-15T00:50:22.886Z,23.80
2022-10-15T00:51:22.852Z,22.90
2022-10-15T00:52:23.052Z,23.70
2022-10-15T00:53:22.762Z,23.00
2022-10-15T00:54:22.728Z,22.80
2022-10-15T00:55:22.679Z,21.80
2022-10-15T00:56:22.639Z,21.60
2022-10-15T00:57:22.631Z,20.70
2022-10-15T00:58:22.551Z,20.60
2022-10-15T00:59:22.501Z,21.50
2022-10-15T01:00:22.458Z,21.40
2022-10-15T01:01:22.442Z,21.90
2022-10-15T01:02:22.674Z,21.40
2022-10-15T01:03:22.291Z,20.90
2022-10-15T01:04:22.272Z,21.60
2022-10-15T01:05:22.223Z,21.10
2022-10-15T01:06:22.169Z,20.60
2022-10-15T01:07:22.151Z,20.20
2022-10-15T01:08:22.072Z,19.30
2022-10-15T01:09:22.033Z,19.60
2022-10-15T01:10:22.002Z,20.50
2022-10-15T01:11:21.946Z,20.80
2022-10-15T01:12:22.144Z,19.40
2022-10-15T01:13:21.883Z,20.50
2022-10-15T01:14:21.842Z,19.30
2022-10-15T01:15:21.805Z,18.90
2022-10-15T01:16:21.754Z,19.50
2022-10-15T01:17:21.909Z,18.70
2022-10-15T01:18:21.695Z,17.90
2022-10-15T01:19:21.629Z,17.80
2022-10-15T01:20:21.578Z,17.80
2022-10-15T01:21:21.542Z,18.20
2022-10-15T01:22:21.487Z,17.40
2022-10-15T01:23:25.133Z,17.10
2022-10-15T01:24:21.427Z,16.60
2022-10-15T01:25:21.373Z,17.00
2022-10-15T01:26:21.332Z,15.70
2022-10-15T01:27:21.665Z,15.60
2022-10-15T01:28:21.323Z,15.60
2022-10-15T01:29:21.230Z,16.20
2022-10-15T01:30:21.160Z,16.20
2022-10-15T01:31:21.119Z,15.80
2022-10-15T01:32:21.090Z,14.90
2022-10-15T01:33:21.050Z,15.20
2022-10-15T01:35:20.952Z,14.80
2022-10-15T01:36:20.912Z,14.40
2022-10-15T01:37:21.232Z,13.90
2022-10-15T01:38:20.820Z,14.70
2022-10-15T01:39:20.805Z,14.40
2022-10-15T01:40:20.742Z,13.90
2022-10-15T01:41:20.694Z,14.00
2022-10-15T01:42:20.644Z,13.80
2022-10-15T01:43:20.621Z,12.10
2022-10-15T01:44:20.584Z,12.50
2022-10-15T01:45:20.524Z,12.50
2022-10-15T01:46:20.494Z,12.60
2022-10-15T01:47:20.752Z,13.20
2022-10-15T01:48:20.396Z,13.00
2022-10-15T01:49:20.365Z,12.60
2022-10-15T01:50:20.326Z,12.90
2022-10-15T01:51:20.282Z,11.90
2022-10-15T01:52:20.318Z,12.80
2022-10-15T01:53:20.180Z,12.30
2022-10-15T01:54:20.186Z,10.90
2022-10-15T01:55:20.108Z,10.70
2022-10-15T01:56:20.067Z,10.60
2022-10-15T01:57:20.101Z,10.10
2022-10-15T01:58:19.983Z,10.70
2022-10-15T01:59:19.939Z,11.30
2022-10-15T02:00:19.889Z,10.80
2022-10-15T02:01:19.884Z,10.80
2022-10-15T02:02:19.781Z,10.20
2022-10-15T02:03:19.752Z,10.00
2022-10-15T02:04:19.728Z,10.20
2022-10-15T02:05:19.661Z,9.90
2022-10-15T02:06:19.627Z,9.90
2022-10-15T02:07:19.573Z,9.60
2022-10-15T02:08:19.542Z,10.40
2022-10-15T02:09:19.491Z,9.80
2022-10-15T02:10:19.453Z,10.40
2022-10-15T02:11:19.413Z,10.20
2022-10-15T02:12:19.354Z,10.10
2022-10-15T02:13:19.323Z,9.70
2022-10-15T02:14:19.264Z,10.10
2022-10-15T02:15:19.259Z,9.80
2022-10-15T02:16:19.194Z,9.90
2022-10-15T02:17:19.144Z,9.70
2022-10-15T02:18:19.106Z,10.20
2022-10-15T02:19:19.057Z,10.00
2022-10-15T02:20:19.035Z,9.90
2022-10-15T02:21:18.987Z,9.80
2022-10-15T02:22:18.936Z,8.80
2022-10-15T02:23:18.896Z,9.10
2022-10-15T02:24:18.864Z,8.90
2022-10-15T02:25:18.857Z,7.80
2022-10-15T02:26:18.778Z,8.10
2022-10-15T02:27:18.747Z,8.10
2022-10-15T02:28:18.747Z,8.50
2022-10-15T02:29:18.660Z,7.90
2022-10-15T02:30:18.639Z,7.40
2022-10-15T02:31:18.578Z,7.80
2022-10-15T02:32:18.529Z,7.90
2022-10-15T02:33:18.480Z,7.40
2022-10-15T02:34:18.440Z,7.90
2022-10-15T02:35:18.429Z,8.30
2022-10-15T02:36:18.350Z,7.40
2022-10-15T02:37:18.322Z,7.30
2022-10-15T02:38:18.289Z,7.30
2022-10-15T02:39:18.244Z,7.20
2022-10-15T02:40:18.199Z,7.30
2022-10-15T02:41:18.157Z,7.00
2022-10-15T02:42:18.112Z,6.70
2022-10-15T02:43:18.074Z,7.10
2022-10-15T02:44:18.043Z,7.40
2022-10-15T02:45:18.023Z,7.20
2022-10-15T02:46:17.944Z,7.50
2022-10-15T02:47:17.967Z,7.10
2022-10-15T02:48:17.864Z,7.10
2022-10-15T02:49:17.834Z,7.10
2022-10-15T02:50:17.794Z,7.40
2022-10-15T02:51:17.759Z,8.00
2022-10-15T02:52:17.685Z,7.40
2022-10-15T02:53:17.674Z,8.00
2022-10-15T02:54:17.596Z,7.90
2022-10-15T02:55:17.575Z,8.20
2022-10-15T02:56:17.582Z,8.90
2022-10-15T02:57:17.488Z,8.40
2022-10-15T02:58:17.445Z,8.70
2022-10-15T02:59:17.406Z,8.60
2022-10-15T03:00:17.358Z,8.90
2022-10-15T03:01:17.372Z,8.60
2022-10-15T03:02:19.333Z,9.50
2022-10-15T03:03:17.258Z,9.60
2022-10-15T03:04:17.198Z,9.60
2022-10-15T03:05:17.191Z,10.20
2022-10-15T03:06:17.134Z,9.90
2022-10-15T03:07:17.089Z,10.00
2022-10-15T03:08:17.040Z,10.30
2022-10-15T03:09:17.001Z,10.40
2022-10-15T03:10:16.951Z,10.10
2022-10-15T03:11:16.934Z,10.20
2022-10-15T03:12:16.882Z,10.10
2022-10-15T03:13:16.843Z,10.50
2022-10-15T03:14:16.844Z,9.80
2022-10-15T03:15:16.763Z,10.30
2022-10-15T03:16:16.725Z,10.00
2022-10-15T03:17:16.693Z,10.20
2022-10-15T03:18:16.651Z,9.80
2022-10-15T03:19:16.604Z,9.60
2022-10-15T03:20:16.564Z,9.90
2022-10-15T03:21:16.506Z,10.50
2022-10-15T03:22:16.506Z,10.30
2022-10-15T03:23:16.436Z,9.20
2022-10-15T03:24:16.397Z,9.80
2022-10-15T03:25:16.359Z,9.10
2022-10-15T03:26:16.327Z,9.10
2022-10-15T03:27:16.298Z,8.80
2022-10-15T03:28:16.255Z,9.30
2022-10-15T03:29:16.208Z,9.20
2022-10-15T03:30:16.157Z,9.00
2022-10-15T03:31:16.119Z,8.30
2022-10-15T03:32:16.088Z,9.10
2022-10-15T03:33:16.058Z,9.20
2022-10-15T03:34:15.998Z,8.20
2022-10-15T03:35:15.961Z,7.60
2022-10-15T03:36:15.929Z,8.20
2022-10-15T03:37:15.889Z,8.30
2022-10-15T03:38:15.860Z,8.20
2022-10-15T03:39:15.800Z,7.70
2022-10-15T03:40:15.794Z,7.90
2022-10-15T03:41:15.730Z,7.30
2022-10-15T03:42:15.693Z,7.10
2022-10-15T03:43:15.663Z,7.20
2022-10-15T03:44:15.647Z,7.60
2022-10-15T03:45:15.582Z,7.40
2022-10-15T03:46:15.552Z,7.40
2022-10-15T03:47:15.531Z,8.00
2022-10-15T03:48:15.504Z,7.80
2022-10-15T03:49:15.453Z,7.70
2022-10-15T03:50:15.404Z,7.30
2022-10-15T03:51:18.175Z,7.50
2022-10-15T03:52:16.349Z,7.20
2022-10-15T03:53:15.316Z,7.20
2022-10-15T03:54:15.255Z,7.00
2022-10-15T03:55:15.225Z,7.30
2022-10-15T03:56:15.186Z,7.00
2022-10-15T03:57:15.155Z,7.30
2022-10-15T03:58:15.108Z,6.70
2022-10-15T03:59:15.075Z,7.30
2022-10-15T04:00:15.029Z,7.30
2022-10-15T04:01:15.060Z,7.10
2022-10-15T04:02:14.937Z,7.20
2022-10-15T04:03:14.888Z,6.70
2022-10-15T04:04:14.877Z,6.40
2022-10-15T04:05:14.810Z,6.40
2022-10-15T04:06:14.759Z,6.60
2022-10-15T04:07:14.709Z,6.70
2022-10-15T04:08:14.679Z,6.70
2022-10-15T04:09:14.659Z,7.00
2022-10-15T04:10:14.611Z,7.10
2022-10-15T04:11:14.582Z,7.00
2022-10-15T04:12:14.530Z,6.30
2022-10-15T04:13:14.492Z,6.10
2022-10-15T04:14:14.461Z,6.40
2022-10-15T04:15:14.431Z,6.30
2022-10-15T04:16:14.362Z,6.10
2022-10-15T04:17:14.329Z,6.00
2022-10-15T04:18:14.290Z,6.20
2022-10-15T04:19:14.233Z,6.30
2022-10-15T04:20:14.222Z,6.30
2022-10-15T04:21:14.185Z,6.10
2022-10-15T04:22:14.126Z,6.20
2022-10-15T04:23:14.093Z,6.20
2022-10-15T04:24:14.061Z,5.90
2022-10-15T04:25:14.037Z,5.70
2022-10-15T04:26:13.976Z,5.20
2022-10-15T04:28:13.905Z,5.50
2022-10-15T04:29:13.876Z,5.20
2022-10-15T04:30:13.836Z,4.60
2022-10-15T04:31:13.786Z,4.80
2022-10-15T04:32:13.728Z,4.60
2022-10-15T04:33:13.688Z,4.60
2022-10-15T04:34:13.655Z,4.80
2022-10-15T04:35:13.619Z,4.50
2022-10-15T04:36:13.590Z,4.20
2022-10-15T04:37:13.480Z,4.10
2022-10-15T04:38:13.447Z,3.60
2022-10-15T04:39:14.565Z,4.00
2022-10-15T04:40:13.353Z,3.70
2022-10-15T04:41:13.291Z,3.70
2022-10-15T04:42:13.231Z,3.70
2022-10-15T04:43:13.182Z,3.40
2022-10-15T04:44:13.140Z,3.30
2022-10-15T04:45:13.137Z,3.60
2022-10-15T04:46:13.032Z,3.20
2022-10-15T04:47:12.971Z,3.20
2022-10-15T04:48:12.918Z,3.00
2022-10-15T04:49:12.869Z,2.90
2022-10-15T04:50:12.830Z,3.10
2022-10-15T04:51:12.736Z,2.70
2022-10-15T04:52:12.680Z,2.90
2022-10-15T04:53:12.613Z,2.60
2022-10-15T04:54:12.553Z,2.60
2022-10-15T04:55:12.517Z,2.80
2022-10-15T04:56:12.456Z,2.60
2022-10-15T04:57:12.394Z,2.60
2022-10-15T04:58:12.353Z,2.30
2022-10-15T04:59:12.275Z,2.50
2022-10-15T05:00:12.275Z,2.60
2022-10-15T05:01:12.196Z,2.50
2022-10-15T05:02:12.200Z,2.70
2022-10-15T05:03:12.077Z,2.50
2022-10-15T05:04:12.027Z,2.50
2022-10-15T05:05:11.976Z,2.40
2022-10-15T05:06:11.915Z,2.40
2022-10-15T05:07:11.856Z,2.70
2022-10-15T05:08:11.799Z,2.50
2022-10-15T05:09:11.746Z,2.80
2022-10-15T05:10:11.719Z,2.40
2022-10-15T05:11:11.650Z,2.70
2022-10-15T05:12:11.589Z,2.60
2022-10-15T05:13:11.548Z,2.90
2022-10-15T05:14:11.501Z,2.70
2022-10-15T05:15:11.463Z,2.50
2022-10-15T05:16:11.390Z,2.50
2022-10-15T05:17:11.342Z,2.50
2022-10-15T05:18:11.282Z,2.30
2022-10-15T05:19:11.218Z,2.40
2022-10-15T05:20:11.243Z,2.50
2022-10-15T05:21:11.142Z,2.70
2022-10-15T05:22:11.079Z,2.60
2022-10-15T05:23:11.023Z,2.60
2022-10-15T05:24:10.978Z,2.40
2022-10-15T05:25:10.910Z,2.30
2022-10-15T05:26:10.874Z,2.40
2022-10-15T05:27:10.818Z,2.70
2022-10-15T05:28:10.754Z,2.40
2022-10-15T05:29:10.698Z,2.40
2022-10-15T05:30:10.644Z,2.00
2022-10-15T05:31:13.715Z,2.30
2022-10-15T05:32:11.587Z,1.90
2022-10-15T05:33:10.495Z,1.80
2022-10-15T05:34:10.435Z,1.90
2022-10-15T05:35:10.385Z,2.00
2022-10-15T05:36:10.354Z,2.20
2022-10-15T05:37:10.295Z,2.10
2022-10-15T05:38:10.242Z,2.10
2022-10-15T05:39:10.180Z,2.10
2022-10-15T05:40:10.128Z,1.80
2022-10-15T05:41:10.089Z,2.00
2022-10-15T05:42:10.038Z,2.10
2022-10-15T05:43:09.976Z,2.00
2022-10-15T05:44:09.928Z,1.90
2022-10-15T05:45:09.854Z,2.00
2022-10-15T05:46:09.802Z,1.90
2022-10-15T05:47:09.760Z,1.60
2022-10-15T05:48:09.671Z,2.20
2022-10-15T05:49:09.620Z,2.10
2022-10-15T05:50:11.742Z,1.90
2022-10-15T05:51:09.523Z,2.10
2022-10-15T05:52:09.480Z,2.10
2022-10-15T05:53:09.423Z,2.30
2022-10-15T05:54:09.356Z,2.10
2022-10-15T05:55:09.313Z,2.20
2022-10-15T05:56:09.272Z,2.00
2022-10-15T05:57:09.214Z,2.10
2022-10-15T05:58:09.161Z,2.10
2022-10-15T05:59:09.101Z,2.40
2022-10-15T06:00:09.062Z,2.40
2022-10-15T06:01:08.971Z,2.50
2022-10-15T06:02:09.022Z,2.40
2022-10-15T06:03:08.882Z,2.40
2022-10-15T06:04:08.835Z,2.90
2022-10-15T06:05:08.757Z,2.80
2022-10-15T06:06:08.715Z,3.00
2022-10-15T06:07:08.656Z,3.10
2022-10-15T06:08:08.659Z,3.50
2022-10-15T06:09:08.557Z,3.00
2022-10-15T06:10:08.509Z,3.40
2022-10-15T06:11:09.455Z,3.30
2022-10-15T06:12:08.407Z,3.70
2022-10-15T06:13:08.369Z,3.50
2022-10-15T06:14:08.319Z,3.80
2022-10-15T06:15:08.242Z,3.50
2022-10-15T06:16:08.198Z,3.40
2022-10-15T06:17:08.129Z,3.20
2022-10-15T06:18:08.088Z,3.10
2022-10-15T06:19:08.050Z,3.40
2022-10-15T06:20:07.980Z,3.30
2022-10-15T06:21:07.914Z,3.70
2022-10-15T06:22:07.876Z,3.30
2022-10-15T06:23:07.829Z,3.50
2022-10-15T06:24:10.008Z,3.30
2022-10-15T06:25:07.717Z,3.00
2022-10-15T06:26:07.671Z,3.00
2022-10-15T06:27:07.613Z,3.10
2022-10-15T06:28:07.562Z,2.90
2022-10-15T06:29:07.516Z,2.90
2022-10-15T06:30:07.486Z,3.00
2022-10-15T06:31:07.407Z,2.60
2022-10-15T06:32:07.363Z,2.60
2022-10-15T06:33:07.367Z,2.60
2022-10-15T06:34:07.270Z,2.60
2022-10-15T06:35:07.216Z,2.70
2022-10-15T06:36:07.169Z,2.70
2022-10-15T06:37:07.127Z,2.50
2022-10-15T06:38:07.078Z,2.80
2022-10-15T06:39:07.008Z,2.50
2022-10-15T06:40:06.972Z,2.30
2022-10-15T06:41:06.910Z,2.30
2022-10-15T06:42:06.859Z,2.20
2022-10-15T06:43:06.798Z,2.70
2022-10-15T06:44:06.751Z,2.20
2022-10-15T06:45:06.699Z,2.80
2022-10-15T06:46:06.645Z,2.50
2022-10-15T06:47:06.579Z,2.30
2022-10-15T06:48:06.539Z,3.20
2022-10-15T06:49:06.480Z,2.70
2022-10-15T06:50:06.440Z,2.80
2022-10-15T06:51:06.369Z,3.00
2022-10-15T06:52:06.320Z,2.90
2022-10-15T06:53:06.274Z,3.10
2022-10-15T06:54:06.211Z,3.30
2022-10-15T06:55:06.172Z,3.20
2022-10-15T06:56:06.105Z,3.20
2022-10-15T06:57:06.031Z,2.80
2022-10-15T06:58:05.983Z,3.20
2022-10-15T06:59:05.942Z,3.20
2022-10-15T07:00:05.918Z,3.00
2022-10-15T07:01:05.828Z,3.20
2022-10-15T07:02:05.773Z,3.30
2022-10-15T07:03:05.725Z,3.20
2022-10-15T07:04:05.664Z,2.90
2022-10-15T07:05:05.624Z,3.00
2022-10-15T07:06:05.540Z,2.80
2022-10-15T07:07:05.486Z,2.90
2022-10-15T07:08:05.444Z,3.00
2022-10-15T07:09:05.376Z,3.00
2022-10-15T07:10:05.316Z,3.10
2022-10-15T07:11:05.278Z,2.90
2022-10-15T07:12:05.215Z,3.00
2022-10-15T07:13:05.157Z,3.50
2022-10-15T07:14:05.097Z,3.10
2022-10-15T07:15:05.040Z,3.00
2022-10-15T07:16:04.990Z,3.30
2022-10-15T07:17:04.919Z,3.20
2022-10-15T07:18:04.882Z,2.90
2022-10-15T07:19:04.829Z,2.90
2022-10-15T07:20:04.770Z,3.20
2022-10-15T07:21:04.814Z,3.50
2022-10-15T07:22:04.680Z,3.90
2022-10-15T07:23:04.626Z,3.80
2022-10-15T07:24:04.571Z,4.20
2022-10-15T07:25:04.512Z,4.30
2022-10-15T07:26:04.484Z,4.00
2022-10-15T07:27:08.210Z,4.40
2022-10-15T07:28:05.356Z,4.00
2022-10-15T07:29:04.300Z,4.10
2022-10-15T07:30:04.243Z,3.80
2022-10-15T07:31:04.217Z,3.60
2022-10-15T07:32:04.135Z,4.20
2022-10-15T07:33:04.073Z,3.30
2022-10-15T07:34:04.015Z,2.90
2022-10-15T07:35:03.964Z,2.60
2022-10-15T07:36:03.910Z,2.40
2022-10-15T07:37:03.880Z,2.60
2022-10-15T07:38:03.796Z,2.50
2022-10-15T07:39:03.754Z,2.90
2022-10-15T07:40:03.676Z,2.50
2022-10-15T07:41:03.646Z,2.30
2022-10-15T07:42:03.675Z,2.20
2022-10-15T07:43:03.519Z,2.20
2022-10-15T07:44:03.450Z,2.40
2022-10-15T07:45:03.397Z,2.40
2022-10-15T07:46:03.351Z,2.50
2022-10-15T07:47:03.308Z,2.20
2022-10-15T07:48:03.238Z,2.50
2022-10-15T07:49:03.172Z,2.70
2022-10-15T07:50:03.118Z,2.40
2022-10-15T07:51:03.092Z,2.70
2022-10-15T07:52:03.000Z,2.30
2022-10-15T07:53:02.971Z,2.20
2022-10-15T07:54:02.886Z,2.20
2022-10-15T07:55:02.822Z,2.30
2022-10-15T07:56:02.761Z,2.40
2022-10-15T07:57:02.711Z,2.40
2022-10-15T07:58:02.653Z,2.40
2022-10-15T07:59:02.603Z,2.20
2022-10-15T08:00:02.530Z,2.30
2022-10-15T08:01:02.468Z,2.50
2022-10-15T08:02:02.391Z,2.50
2022-10-15T08:03:02.376Z,2.40
2022-10-15T08:04:02.285Z,2.40
2022-10-15T08:05:02.231Z,2.30
2022-10-15T08:06:02.166Z,2.60
2022-10-15T08:07:02.177Z,2.70
2022-10-15T08:08:02.057Z,2.70
2022-10-15T08:09:01.989Z,3.00
2022-10-15T08:10:01.926Z,3.40
2022-10-15T08:11:01.866Z,3.10
2022-10-15T08:12:01.796Z,3.20
2022-10-15T08:13:01.757Z,3.20
2022-10-15T08:14:01.699Z,3.50
2022-10-15T08:15:01.628Z,3.70
2022-10-15T08:16:01.578Z,3.40
2022-10-15T08:17:01.498Z,3.00
2022-10-15T08:18:01.428Z,3.50
2022-10-15T08:19:01.412Z,4.60
2022-10-15T08:20:01.320Z,7.20
2022-10-15T08:21:01.260Z,5.60
2022-10-15T08:22:01.201Z,4.60
2022-10-15T08:23:01.144Z,5.50
2022-10-15T08:24:01.091Z,6.20
2022-10-15T08:25:01.015Z,6.10
2022-10-15T08:26:00.956Z,5.20
2022-10-15T08:27:00.887Z,5.60
2022-10-15T08:28:00.885Z,7.10
2022-10-15T08:29:00.801Z,6.80
2022-10-15T08:30:00.712Z,6.30
2022-10-15T08:31:04.357Z,7.00
2022-10-15T08:32:01.573Z,7.60
2022-10-15T08:33:00.502Z,9.50
2022-10-15T08:34:00.441Z,8.90
2022-10-15T08:35:00.394Z,8.70
2022-10-15T08:36:00.318Z,9.90
2022-10-15T08:37:00.255Z,9.60
2022-10-15T08:38:00.217Z,10.50
2022-10-15T08:39:00.145Z,10.60
2022-10-15T08:40:00.096Z,10.00
2022-10-15T08:41:00.013Z,11.50
2022-10-15T08:41:59.952Z,12.30
2022-10-15T08:42:59.889Z,15.10
2022-10-15T08:43:59.829Z,14.10
2022-10-15T08:44:59.787Z,18.10
2022-10-15T08:45:59.727Z,18.30
2022-10-15T08:46:59.648Z,13.50
2022-10-15T08:47:59.616Z,14.00
2022-10-15T08:48:59.539Z,13.80
2022-10-15T08:49:59.506Z,12.00
2022-10-15T08:50:59.399Z,9.60
2022-10-15T08:51:59.340Z,10.00
2022-10-15T08:52:59.289Z,10.90
2022-10-15T08:53:59.220Z,12.50
2022-10-15T08:54:59.164Z,15.20
2022-10-15T08:55:59.112Z,10.90
2022-10-15T08:56:59.040Z,9.10
2022-10-15T08:57:58.993Z,10.80
2022-10-15T08:58:58.922Z,16.20
2022-10-15T08:59:58.853Z,13.70
2022-10-15T09:00:58.823Z,13.10
2022-10-15T09:01:58.738Z,15.50
2022-10-15T09:02:58.741Z,11.80
2022-10-15T09:03:58.596Z,12.40
2022-10-15T09:04:58.574Z,12.20
2022-10-15T09:05:58.505Z,13.90
2022-10-15T09:06:58.416Z,11.00
2022-10-15T09:07:58.355Z,15.70
2022-10-15T09:08:58.292Z,9.90
2022-10-15T09:09:58.225Z,11.50
2022-10-15T09:10:58.176Z,15.30
2022-10-15T09:11:58.089Z,15.20
2022-10-15T11:14:45.498Z,5.80
2022-10-15T11:15:45.478Z,5.70
2022-10-15T11:16:45.396Z,5.10
2022-10-15T11:17:45.359Z,5.50
2022-10-15T11:18:45.328Z,5.30
2022-10-15T11:20:20.036Z,4.70
2022-10-15T11:20:56.422Z,4.20
2022-10-15T11:21:46.160Z,3.80
2022-10-15T11:22:45.137Z,4.20
2022-10-15T11:23:45.057Z,3.50
2022-10-15T11:24:49.125Z,3.30
2022-10-15T11:25:45.951Z,3.90
2022-10-15T11:26:58.793Z,4.30
2022-10-15T11:27:45.832Z,4.30
2022-10-15T11:28:44.843Z,3.40
2022-10-15T11:29:44.734Z,3.90
2022-10-15T11:30:44.646Z,4.70
2022-10-15T11:31:55.373Z,5.90
2022-10-15T11:33:05.544Z,4.10
2022-10-15T11:33:45.477Z,3.80
2022-10-15T11:34:44.415Z,3.30
2022-10-15T11:35:53.079Z,4.20
2022-10-15T11:36:45.276Z,5.80
2022-10-15T11:37:44.239Z,14.70
2022-10-15T11:38:44.146Z,9.50
2022-10-15T11:39:44.066Z,9.40
2022-10-15T11:40:44.008Z,7.80
2022-10-15T11:41:43.939Z,4.70
2022-10-15T11:42:43.877Z,18.70
2022-10-15T11:43:43.812Z,19.20
2022-10-15T11:44:43.739Z,5.20
2022-10-15T11:45:43.699Z,6.70
2022-10-15T11:46:46.538Z,12.90
2022-10-15T11:47:43.559Z,12.70
2022-10-15T11:48:43.490Z,10.80
2022-10-15T11:49:43.412Z,7.70
2022-10-15T11:50:43.349Z,3.60
2022-10-15T11:51:43.279Z,2.40
2022-10-15T11:52:43.230Z,3.30
2022-10-15T11:53:43.142Z,3.20
2022-10-15T11:54:43.082Z,2.40
2022-10-15T11:55:43.032Z,2.80
2022-10-15T11:56:42.944Z,3.10
2022-10-15T11:57:42.896Z,3.20
2022-10-15T11:58:42.813Z,2.50
2022-10-15T11:59:42.752Z,2.90
2022-10-15T12:00:42.694Z,2.80
2022-10-15T12:01:42.614Z,2.60
2022-10-15T12:02:42.559Z,2.40
2022-10-15T12:03:42.487Z,3.00
2022-10-15T12:04:42.416Z,3.00
2022-10-15T12:05:42.357Z,2.80
2022-10-15T12:06:42.312Z,2.70
2022-10-15T12:07:42.226Z,3.30
2022-10-15T12:08:42.148Z,4.60
2022-10-15T12:09:42.098Z,2.70
2022-10-15T12:10:42.029Z,3.10
2022-10-15T12:11:41.949Z,3.90
2022-10-15T12:12:41.890Z,3.40
2022-10-15T12:13:41.820Z,2.70
2022-10-15T12:14:41.749Z,2.70
2022-10-15T12:15:41.730Z,2.80
2022-10-15T12:16:41.631Z,3.20
2022-10-15T12:17:41.560Z,2.30
2022-10-15T12:18:41.482Z,2.40
2022-10-15T12:19:41.411Z,2.90
2022-10-15T12:20:41.340Z,3.10
2022-10-15T12:21:41.261Z,3.00
2022-10-15T12:22:41.194Z,3.40
2022-10-15T12:23:41.111Z,3.40
2022-10-15T12:24:41.032Z,3.90
2022-10-15T12:25:40.988Z,3.20
2022-10-15T12:26:40.894Z,3.30
2022-10-15T12:27:40.838Z,4.00
2022-10-15T12:28:40.810Z,3.20
2022-10-15T12:29:40.694Z,4.80
2022-10-15T12:30:40.627Z,3.40
2022-10-15T12:31:40.546Z,3.50
2022-10-15T12:32:40.481Z,4.20
2022-10-15T12:33:40.408Z,3.30
2022-10-15T12:34:40.313Z,3.00
2022-10-15T12:35:40.252Z,3.40
2022-10-15T12:36:40.178Z,3.10
2022-10-15T12:37:40.110Z,2.60
2022-10-15T12:38:40.038Z,3.40
2022-10-15T12:39:51.630Z,2.60
2022-10-15T12:40:40.870Z,3.40
2022-10-15T12:41:39.818Z,2.70
2022-10-15T12:42:39.730Z,2.70
2022-10-15T12:43:39.666Z,2.40
2022-10-15T12:44:39.582Z,2.80
2022-10-15T12:45:40.468Z,3.20
2022-10-15T12:46:39.454Z,3.70
2022-10-15T12:47:39.412Z,3.40
2022-10-15T12:48:39.303Z,3.50
2022-10-15T12:49:39.231Z,3.60
2022-10-15T12:50:39.162Z,3.80
2022-10-15T12:51:39.094Z,3.20
2022-10-15T12:52:39.015Z,3.50
2022-10-15T12:53:38.947Z,3.60
2022-10-15T12:54:38.873Z,3.40
2022-10-15T12:55:38.796Z,2.90
2022-10-15T12:56:38.737Z,2.90
2022-10-15T12:57:38.679Z,2.80
2022-10-15T12:58:38.596Z,2.70
2022-10-15T12:59:38.527Z,2.70
2022-10-15T13:00:38.533Z,2.90
2022-10-15T13:01:38.376Z,3.10
2022-10-15T13:02:38.378Z,4.30
2022-10-15T13:03:38.227Z,4.50
2022-10-15T13:04:38.186Z,3.20
2022-10-15T13:05:38.100Z,3.00
2022-10-15T13:06:38.045Z,3.40
2022-10-15T13:07:37.958Z,3.40
2022-10-15T13:08:37.897Z,3.40
2022-10-15T13:09:37.819Z,3.60
2022-10-15T13:10:37.741Z,3.00
2022-10-15T13:11:37.751Z,3.20
2022-10-15T13:12:37.622Z,4.70
2022-10-15T13:13:37.559Z,9.20
2022-10-15T13:14:37.512Z,8.80
2022-10-15T13:15:37.439Z,6.70
2022-10-15T13:16:37.349Z,6.40
2022-10-15T13:17:37.303Z,4.10
2022-10-15T13:18:37.222Z,3.60
2022-10-15T13:19:37.166Z,3.70
2022-10-15T13:20:37.092Z,3.50
2022-10-15T13:21:37.034Z,4.00
2022-10-15T13:22:36.975Z,3.90
2022-10-15T13:23:36.937Z,3.90
2022-10-15T13:24:36.825Z,4.00
2022-10-15T13:25:36.755Z,4.50
2022-10-15T13:26:36.699Z,5.60
2022-10-15T13:27:36.636Z,5.40
2022-10-15T13:28:36.580Z,5.40
2022-10-15T13:29:36.487Z,5.60
2022-10-15T13:30:36.406Z,6.50
2022-10-15T13:31:36.344Z,6.90
2022-10-15T13:32:36.268Z,7.30
2022-10-15T13:33:36.178Z,7.60
2022-10-15T13:34:36.126Z,7.70
2022-10-15T13:35:36.020Z,7.40
2022-10-15T13:36:35.940Z,8.50
2022-10-15T13:37:35.896Z,8.80
2022-10-15T13:38:35.819Z,7.70
2022-10-15T13:39:35.799Z,7.10
2022-10-15T13:40:35.681Z,7.00
2022-10-15T13:41:35.591Z,7.60
2022-10-15T13:42:35.520Z,8.40
2022-10-15T13:43:35.474Z,9.50
2022-10-15T13:44:35.395Z,9.70
2022-10-15T13:45:35.313Z,8.60
2022-10-15T13:46:35.242Z,7.70
2022-10-15T13:47:35.194Z,8.60
2022-10-15T13:48:35.142Z,8.70
2022-10-15T13:49:35.043Z,8.60
2022-10-15T13:50:34.977Z,9.00
2022-10-15T13:51:34.906Z,9.20
2022-10-15T13:52:34.846Z,8.20
2022-10-15T13:53:34.791Z,10.40
2022-10-15T13:54:34.706Z,11.20
2022-10-15T13:55:34.645Z,10.30
2022-10-15T13:56:34.579Z,10.30
2022-10-15T13:57:34.548Z,8.40
2022-10-15T13:58:34.460Z,8.60
2022-10-15T13:59:34.411Z,6.40
2022-10-15T14:00:34.388Z,6.80
2022-10-15T14:01:34.271Z,6.00
2022-10-15T14:02:34.199Z,6.30
2022-10-15T14:03:34.159Z,7.30
2022-10-15T14:04:34.120Z,9.20
2022-10-15T14:05:34.038Z,10.90
2022-10-15T14:06:33.960Z,8.30
2022-10-15T14:07:33.947Z,6.90
2022-10-15T14:08:33.860Z,5.90
2022-10-15T14:09:33.799Z,6.30
2022-10-15T14:10:33.700Z,5.80
2022-10-15T14:11:33.669Z,5.00
2022-10-15T14:12:33.561Z,5.70
2022-10-15T14:13:33.624Z,5.40
2022-10-15T14:14:33.447Z,5.20
2022-10-15T14:15:33.378Z,4.90
2022-10-15T14:16:33.293Z,4.40
2022-10-15T14:17:33.204Z,4.40
2022-10-15T14:18:33.146Z,5.20
2022-10-15T14:19:33.068Z,4.90
2022-10-15T14:20:33.016Z,5.20
2022-10-15T14:21:32.947Z,4.90
2022-10-15T14:22:32.886Z,5.10
2022-10-15T14:23:32.815Z,5.20
2022-10-15T14:24:32.782Z,5.10
2022-10-15T14:25:32.716Z,5.10
2022-10-15T14:26:32.648Z,5.00
2022-10-15T14:27:32.599Z,4.50
2022-10-15T14:28:32.525Z,9.20
2022-10-15T14:29:32.458Z,5.40
2022-10-15T14:30:32.389Z,7.60
2022-10-15T14:31:32.371Z,5.30
2022-10-15T14:32:32.228Z,4.90
2022-10-15T14:33:32.196Z,4.30
2022-10-15T14:34:32.121Z,4.70
2022-10-15T14:35:32.073Z,4.50
2022-10-15T14:36:32.001Z,4.60
2022-10-15T14:37:31.947Z,4.40
2022-10-15T14:38:31.902Z,4.10
2022-10-15T14:39:31.883Z,4.50
2022-10-15T14:40:31.772Z,4.20
2022-10-15T14:41:31.711Z,4.20
2022-10-15T14:42:31.657Z,3.70
2022-10-15T14:43:31.607Z,3.00
2022-10-15T14:44:31.556Z,3.00
2022-10-15T14:45:31.493Z,2.70
2022-10-15T14:46:31.428Z,3.00
2022-10-15T14:47:31.355Z,3.30
2022-10-15T14:48:31.306Z,3.00
2022-10-15T14:49:31.266Z,3.30
2022-10-15T14:50:31.206Z,3.50
2022-10-15T14:51:31.136Z,3.70
2022-10-15T14:53:31.019Z,3.80
2022-10-15T14:54:30.978Z,4.20
2022-10-15T14:55:30.918Z,4.20
2022-10-15T14:56:30.849Z,4.70
2022-10-15T14:57:30.799Z,4.70
2022-10-15T14:58:30.754Z,4.80
2022-10-15T14:59:30.691Z,5.00
2022-10-15T15:00:30.650Z,7.20
2022-10-15T15:01:30.583Z,7.00
2022-10-15T15:02:30.519Z,6.10
2022-10-15T15:03:30.511Z,7.10
2022-10-15T15:04:30.433Z,6.70
2022-10-15T15:05:30.369Z,8.00
2022-10-15T15:06:30.311Z,6.40
2022-10-15T15:07:30.233Z,5.60
2022-10-15T15:08:30.185Z,5.60
2022-10-15T15:09:30.132Z,5.90
2022-10-15T15:10:30.083Z,5.80
2022-10-15T15:11:30.003Z,6.00
2022-10-15T15:12:30.298Z,6.10
2022-10-15T15:13:29.884Z,5.70
2022-10-15T15:14:29.852Z,6.30
2022-10-15T15:15:29.777Z,6.30
2022-10-15T15:16:29.727Z,6.10